createdAt,value
2019-04-29T00:00:02.752Z,5.9
2019-04-29T00:05:02.690Z,5.8
2019-04-29T00:10:03.132Z,5.9
2019-04-29T00:15:02.541Z,5.9
2019-04-29T00:20:02.993Z,5.9
2019-04-29T00:25:02.420Z,5.8
2019-04-29T00:30:02.858Z,5.8
2019-04-29T00:35:03.299Z,5.5
2019-04-29T00:40:02.723Z,5.5
2019-04-29T00:45:03.162Z,5.3
2019-04-29T00:50:02.578Z,5.3
2019-04-29T00:55:03.024Z,5.4
2019-04-29T01:00:02.442Z,5.4
2019-04-29T01:05:02.885Z,5.4
2019-04-29T01:10:03.431Z,5.3
2019-04-29T01:15:02.831Z,5.4
2019-04-29T01:20:03.294Z,5.4
2019-04-29T01:25:02.809Z,5.4
2019-04-29T01:30:03.297Z,5.0
2019-04-29T01:35:02.695Z,5.0
2019-04-29T01:40:03.104Z,5.0
2019-04-29T01:45:02.545Z,4.8
2019-04-29T01:50:02.993Z,4.8
2019-04-29T01:55:02.494Z,5.0
2019-04-29T02:00:02.948Z,5.0
2019-04-29T02:05:03.395Z,4.8
2019-04-29T02:10:02.807Z,4.8
2019-04-29T02:15:03.268Z,4.5
2019-04-29T02:20:02.776Z,4.3
2019-04-29T02:25:03.224Z,4.3
2019-04-29T02:30:02.651Z,4.3
2019-04-29T02:35:03.124Z,4.3
2019-04-29T02:40:02.604Z,4.5
2019-04-29T02:45:03.051Z,4.3
2019-04-29T02:50:02.469Z,4.3
2019-04-29T02:55:02.949Z,4.3
2019-04-29T03:00:03.777Z,4.0
2019-04-29T03:05:03.234Z,4.3
2019-04-29T03:10:02.749Z,4.3
2019-04-29T03:15:03.199Z,4.0
2019-04-29T03:20:02.618Z,4.0
2019-04-29T03:25:03.161Z,4.0
2019-04-29T03:30:02.584Z,4.0
2019-04-29T03:35:03.124Z,4.0
2019-04-29T03:40:02.794Z,3.7
2019-04-29T03:45:03.299Z,3.7
2019-04-29T03:50:02.710Z,3.5
2019-04-29T03:55:03.253Z,3.7
2019-04-29T04:00:02.650Z,3.7
2019-04-29T04:05:03.176Z,3.7
2019-04-29T04:10:02.655Z,3.7
2019-04-29T04:15:03.219Z,4.0
2019-04-29T04:20:02.717Z,4.0
2019-04-29T04:25:03.175Z,4.0
2019-04-29T04:30:03.329Z,3.7
2019-04-29T04:35:02.807Z,4.0
2019-04-29T04:40:03.248Z,4.0
2019-04-29T04:45:02.662Z,4.0
2019-04-29T04:50:02.261Z,4.0
2019-04-29T04:55:02.752Z,4.0
2019-04-29T05:00:03.184Z,4.3
2019-04-29T05:05:02.609Z,4.3
2019-04-29T05:10:03.044Z,4.3
2019-04-29T05:15:02.496Z,4.3
2019-04-29T05:20:03.112Z,4.5
2019-04-29T05:25:02.541Z,4.5
2019-04-29T05:30:02.975Z,4.5
2019-04-29T05:35:02.392Z,4.8
2019-04-29T05:40:02.835Z,5.0
2019-04-29T05:45:03.294Z,5.0
2019-04-29T05:50:01.990Z,5.0
2019-04-29T05:55:03.065Z,5.3
2019-04-29T06:00:02.554Z,5.5
2019-04-29T06:05:02.996Z,5.9
2019-04-29T06:10:02.419Z,6.0
2019-04-29T06:15:02.867Z,6.1
2019-04-29T06:20:03.309Z,6.6
2019-04-29T06:25:02.722Z,6.9
2019-04-29T06:30:04.816Z,7.1
2019-04-29T06:35:02.378Z,7.4
2019-04-29T06:40:02.817Z,7.5
2019-04-29T06:45:03.267Z,8.0
2019-04-29T06:50:02.662Z,8.1
2019-04-29T06:55:03.127Z,8.1
2019-04-29T07:00:02.535Z,8.6
2019-04-29T07:05:03.014Z,8.8
2019-04-29T07:10:02.516Z,9.1
2019-04-29T07:15:02.964Z,9.3
2019-04-29T07:20:03.373Z,9.5
2019-04-29T07:25:02.896Z,9.8
2019-04-29T07:30:06.520Z,10.1
2019-04-29T07:35:05.860Z,10.5
2019-04-29T07:40:03.614Z,10.8
2019-04-29T07:45:03.093Z,11.1
2019-04-29T07:50:02.543Z,11.3
2019-04-29T07:55:03.029Z,12.0
2019-04-29T08:00:02.427Z,12.6
2019-04-29T08:05:02.930Z,12.6
2019-04-29T08:10:03.580Z,12.8
2019-04-29T08:15:07.706Z,12.8
2019-04-29T08:20:05.322Z,14.0
2019-04-29T08:25:02.741Z,14.1
2019-04-29T08:30:06.635Z,14.3
2019-04-29T08:35:03.364Z,14.3
2019-04-29T08:40:15.542Z,14.3
2019-04-29T08:45:02.253Z,14.3
2019-04-29T08:50:02.676Z,15.1
2019-04-29T08:55:02.370Z,17.7
2019-04-29T09:00:02.840Z,17.3
2019-04-29T09:05:06.776Z,15.8
2019-04-29T09:10:03.638Z,16.7
2019-04-29T09:15:03.263Z,17.0
2019-04-29T09:20:02.794Z,17.0
2019-04-29T09:25:03.279Z,17.0
2019-04-29T09:30:02.697Z,18.2
2019-04-29T09:35:03.403Z,17.7
2019-04-29T09:40:02.810Z,17.7
2019-04-29T09:45:03.312Z,18.2
2019-04-29T09:50:02.747Z,18.2
2019-04-29T09:55:04.007Z,17.7
2019-04-29T10:00:05.475Z,18.6
2019-04-29T10:05:02.515Z,19.3
2019-04-29T10:10:06.847Z,18.1
2019-04-29T10:15:03.252Z,18.6
2019-04-29T10:20:02.710Z,19.0
2019-04-29T10:25:04.584Z,17.8
2019-04-29T10:30:03.035Z,18.5
2019-04-29T10:35:03.607Z,18.2
2019-04-29T10:40:10.929Z,19.3
2019-04-29T10:45:03.154Z,18.1
2019-04-29T10:50:02.665Z,18.2
2019-04-29T10:55:03.111Z,19.2
2019-04-29T11:00:02.762Z,17.5
2019-04-29T11:05:03.173Z,18.1
2019-04-29T11:10:01.885Z,18.8
2019-04-29T11:15:03.486Z,18.6
2019-04-29T11:20:02.907Z,19.3
2019-04-29T11:25:03.614Z,19.5
2019-04-29T11:30:04.783Z,20.1
2019-04-29T11:35:03.376Z,19.7
2019-04-29T11:40:01.972Z,19.2
2019-04-29T11:45:03.635Z,18.5
2019-04-29T11:50:03.283Z,19.5
2019-04-29T11:55:02.786Z,19.0
2019-04-29T12:00:03.243Z,20.6
2019-04-29T12:05:04.281Z,19.0
2019-04-29T12:10:06.489Z,17.8
2019-04-29T12:15:03.195Z,18.5
2019-04-29T12:20:02.643Z,20.0
2019-04-29T12:25:03.188Z,19.5
2019-04-29T12:30:02.577Z,20.1
2019-04-29T12:35:03.070Z,19.3
2019-04-29T12:40:01.696Z,20.3
2019-04-29T12:45:03.176Z,19.7
2019-04-29T12:50:02.604Z,19.7
2019-04-29T12:55:19.310Z,20.2
2019-04-29T13:01:08.479Z,19.5
2019-04-29T13:05:03.059Z,19.1
2019-04-29T13:10:06.891Z,17.8
2019-04-29T13:15:03.578Z,19.2
2019-04-29T13:20:07.297Z,20.7
2019-04-29T13:25:02.982Z,19.5
2019-04-29T13:30:02.394Z,18.7
2019-04-29T13:35:05.359Z,18.6
2019-04-29T13:40:03.392Z,19.1
2019-04-29T13:45:09.392Z,18.2
2019-04-29T13:50:17.240Z,18.2
2019-04-29T13:55:16.527Z,18.2
2019-04-29T14:00:02.800Z,19.1
2019-04-29T14:05:03.254Z,19.5
2019-04-29T14:10:02.662Z,19.5
2019-04-29T14:15:03.118Z,20.2
2019-04-29T14:20:02.681Z,19.7
2019-04-29T14:25:03.193Z,20.2
2019-04-29T14:30:03.029Z,20.1
2019-04-29T14:35:02.531Z,19.7
2019-04-29T14:40:07.181Z,19.3
2019-04-29T14:45:03.245Z,19.3
2019-04-29T14:50:02.645Z,18.2
2019-04-29T14:55:03.081Z,18.5
2019-04-29T15:00:02.707Z,18.5
2019-04-29T15:05:07.370Z,18.6
2019-04-29T15:10:02.516Z,18.2
2019-04-29T15:15:03.100Z,17.0
2019-04-29T15:20:02.684Z,17.0
2019-04-29T15:25:03.203Z,16.6
2019-04-29T15:30:02.689Z,16.3
2019-04-29T15:35:03.127Z,16.3
2019-04-29T15:40:02.732Z,16.6
2019-04-29T15:45:03.202Z,16.3
2019-04-29T15:50:17.377Z,15.8
2019-04-29T15:55:02.862Z,15.3
2019-04-29T16:00:20.207Z,15.3
2019-04-29T16:05:04.640Z,15.1
2019-04-29T16:10:03.262Z,15.5
2019-04-29T16:15:02.714Z,15.3
2019-04-29T16:20:03.267Z,15.0
2019-04-29T16:30:02.920Z,14.3
2019-04-29T16:35:03.438Z,14.3
2019-04-29T16:40:02.886Z,14.3
2019-04-29T16:45:06.186Z,14.0
2019-04-29T16:50:04.656Z,14.1
2019-04-29T16:55:04.173Z,14.0
2019-04-29T17:00:06.318Z,13.8
2019-04-29T17:05:03.378Z,14.0
2019-04-29T17:10:02.849Z,13.6
2019-04-29T17:15:05.043Z,13.6
2019-04-29T17:20:02.893Z,13.5
2019-04-29T17:25:03.454Z,13.5
2019-04-29T17:30:07.421Z,13.5
2019-04-29T17:35:03.674Z,13.5
2019-04-29T17:35:19.043Z,14.5
2019-04-29T17:40:03.257Z,13.5
2019-04-29T17:45:10.599Z,13.3
2019-04-29T17:50:06.504Z,13.3
2019-04-29T17:55:02.855Z,13.1
2019-04-29T18:00:05.163Z,13.1
2019-04-29T18:05:02.911Z,13.1
2019-04-29T18:10:05.053Z,12.8
2019-04-29T18:15:02.607Z,12.8
2019-04-29T18:20:08.531Z,12.5
2019-04-29T18:25:02.789Z,12.5
2019-04-29T18:30:03.306Z,12.3
2019-04-29T18:35:02.748Z,12.1
2019-04-29T18:40:03.568Z,12.1
2019-04-29T18:45:05.002Z,12.0
2019-04-29T18:50:02.910Z,11.6
2019-04-29T18:55:03.446Z,11.6
2019-04-29T19:00:04.785Z,11.6
2019-04-29T19:05:03.106Z,11.6
2019-04-29T19:10:02.660Z,11.6
2019-04-29T19:15:04.945Z,11.6
2019-04-29T19:20:02.591Z,11.6
2019-04-29T19:25:03.025Z,11.3
2019-04-29T19:30:02.476Z,11.3
2019-04-29T19:35:02.957Z,11.3
2019-04-29T19:40:02.447Z,11.1
2019-04-29T19:45:06.269Z,11.1
2019-04-29T19:50:03.309Z,11.1
2019-04-29T19:55:03.360Z,11.1
2019-04-29T20:00:03.288Z,11.0
2019-04-29T20:05:05.126Z,11.0
2019-04-29T20:10:05.791Z,10.8
2019-04-29T20:15:03.345Z,11.0
2019-04-29T20:20:05.064Z,10.8
2019-04-29T20:25:03.267Z,10.8
2019-04-29T20:30:03.222Z,11.0
2019-04-29T20:35:06.966Z,11.0
2019-04-29T20:40:02.819Z,11.0
2019-04-29T20:45:05.210Z,10.8
2019-04-29T20:50:03.080Z,10.8
2019-04-29T20:55:02.892Z,10.8
2019-04-29T21:00:02.594Z,10.8
2019-04-29T21:05:03.360Z,10.8
2019-04-29T21:10:04.832Z,10.8
2019-04-29T21:15:09.382Z,10.8
2019-04-29T21:20:03.152Z,10.8
2019-04-29T21:25:02.598Z,10.8
2019-04-29T21:30:03.054Z,10.8
2019-04-29T21:35:02.481Z,10.8
2019-04-29T21:40:07.149Z,10.8
2019-04-29T21:45:04.687Z,10.6
2019-04-29T21:50:02.984Z,10.8
2019-04-29T21:55:02.409Z,10.6
2019-04-29T22:00:02.876Z,10.6
2019-04-29T22:05:05.114Z,10.6
2019-04-29T22:10:02.701Z,10.6
2019-04-29T22:15:03.165Z,10.6
2019-04-29T22:20:04.097Z,10.6
2019-04-29T22:25:05.930Z,10.8
2019-04-29T22:30:03.053Z,10.8
2019-04-29T22:35:02.579Z,10.8
2019-04-29T22:40:03.200Z,10.8
2019-04-29T22:45:02.873Z,10.8
2019-04-29T22:50:04.464Z,10.8
2019-04-29T22:55:02.639Z,10.8
2019-04-29T23:00:07.287Z,10.8
2019-04-29T23:05:03.068Z,10.6
2019-04-29T23:10:02.497Z,10.5
2019-04-29T23:15:02.937Z,10.5
2019-04-29T23:20:03.389Z,10.5
2019-04-29T23:25:02.889Z,10.5
2019-04-29T23:30:03.415Z,10.5
2019-04-29T23:35:06.275Z,10.3
2019-04-29T23:40:03.000Z,10.5
2019-04-29T23:45:02.420Z,10.5
2019-04-29T23:50:02.860Z,10.5
2019-04-29T23:55:03.428Z,10.5
